sensor_id;sensor_type;location;lat;lon;timestamp;P1;durP1;ratioP1;P2;durP2;ratioP2
9729;SDS011;4904;49.152;11.004;2023-01-01T00:00:12;5.15;;;4.65;;
9729;SDS011;4904;49.152;11.004;2023-01-01T00:02:41;6.85;;;4.53;;
9729;SDS011;4904;49.152;11.004;2023-01-01T00:05:08;5.22;;;4.20;;
9729;SDS011;4904;49.152;11.004;2023-01-01T00:07:35;5.50;;;3.92;;
9729;SDS011;4904;49.152;11.004;2023-01-01T00:10:02;4.63;;;4.22;;
9729;SDS011;4904;49.152;11.004;2023-01-01T00:12:47;4.80;;;4.40;;
9729;SDS011;4904;49.152;11.004;2023-01-01T00:15:14;4.90;;;4.20;;
9729;SDS011;4904;49.152;11.004;2023-01-01T00:17:43;5.25;;;4.47;;
9729;SDS011;4904;49.152;11.004;2023-01-01T00:20:10;4.85;;;4.32;;
9729;SDS011;4904;49.152;11.004;2023-01-01T00:22:37;5.60;;;4.72;;
9729;SDS011;4904;49.152;11.004;2023-01-01T00:25:04;6.15;;;4.40;;
9729;SDS011;4904;49.152;11.004;2023-01-01T00:27:32;5.25;;;4.75;;
9729;SDS011;4904;49.152;11.004;2023-01-01T00:29:59;5.32;;;4.80;;
9729;SDS011;4904;49.152;11.004;2023-01-01T00:32:27;5.95;;;4.80;;
9729;SDS011;4904;49.152;11.004;2023-01-01T00:34:56;6.10;;;4.70;;
9729;SDS011;4904;49.152;11.004;2023-01-01T00:37:23;5.18;;;4.68;;
9729;SDS011;4904;49.152;11.004;2023-01-01T00:39:49;5.72;;;5.07;;
9729;SDS011;4904;49.152;11.004;2023-01-01T00:42:16;6.00;;;5.40;;
9729;SDS011;4904;49.152;11.004;2023-01-01T00:44:43;6.63;;;5.88;;
9729;SDS011;4904;49.152;11.004;2023-01-01T00:47:10;6.90;;;6.15;;
9729;SDS011;4904;49.152;11.004;2023-01-01T00:49:37;6.72;;;6.03;;
9729;SDS011;4904;49.152;11.004;2023-01-01T00:52:05;7.78;;;6.50;;
9729;SDS011;4904;49.152;11.004;2023-01-01T00:54:33;6.63;;;5.80;;
9729;SDS011;4904;49.152;11.004;2023-01-01T00:56:59;6.47;;;5.72;;
9729;SDS011;4904;49.152;11.004;2023-01-01T00:59:26;6.28;;;5.68;;
9729;SDS011;4904;49.152;11.004;2023-01-01T01:01:53;6.30;;;5.70;;
9729;SDS011;4904;49.152;11.004;2023-01-01T01:04:20;7.10;;;6.40;;
9729;SDS011;4904;49.152;11.004;2023-01-01T01:06:47;7.68;;;5.90;;
9729;SDS011;4904;49.152;11.004;2023-01-01T01:09:15;9.35;;;6.15;;
9729;SDS011;4904;49.152;11.004;2023-01-01T01:11:42;6.63;;;5.93;;
9729;SDS011;4904;49.152;11.004;2023-01-01T01:14:09;9.95;;;5.80;;
9729;SDS011;4904;49.152;11.004;2023-01-01T01:16:36;8.80;;;6.07;;
9729;SDS011;4904;49.152;11.004;2023-01-01T01:19:03;5.85;;;5.25;;
9729;SDS011;4904;49.152;11.004;2023-01-01T01:21:32;6.20;;;5.55;;
9729;SDS011;4904;49.152;11.004;2023-01-01T01:24:00;7.18;;;5.78;;
9729;SDS011;4904;49.152;11.004;2023-01-01T01:26:29;6.53;;;5.28;;
9729;SDS011;4904;49.152;11.004;2023-01-01T01:28:57;7.28;;;5.65;;
9729;SDS011;4904;49.152;11.004;2023-01-01T01:31:26;6.40;;;5.32;;
9729;SDS011;4904;49.152;11.004;2023-01-01T01:33:57;6.50;;;5.20;;
9729;SDS011;4904;49.152;11.004;2023-01-01T01:36:24;6.30;;;5.20;;
9729;SDS011;4904;49.152;11.004;2023-01-01T01:38:51;5.63;;;4.75;;
9729;SDS011;4904;49.152;11.004;2023-01-01T01:41:20;5.22;;;4.50;;
9729;SDS011;4904;49.152;11.004;2023-01-01T01:43:54;7.35;;;5.60;;
9729;SDS011;4904;49.152;11.004;2023-01-01T01:46:24;5.00;;;4.50;;
9729;SDS011;4904;49.152;11.004;2023-01-01T01:48:55;6.82;;;5.47;;
9729;SDS011;4904;49.152;11.004;2023-01-01T01:51:29;6.15;;;5.28;;
9729;SDS011;4904;49.152;11.004;2023-01-01T01:54:00;5.70;;;5.18;;
9729;SDS011;4904;49.152;11.004;2023-01-01T01:56:34;6.40;;;4.90;;
9729;SDS011;4904;49.152;11.004;2023-01-01T01:59:07;5.30;;;4.80;;
9729;SDS011;4904;49.152;11.004;2023-01-01T02:01:34;6.15;;;5.00;;
9729;SDS011;4904;49.152;11.004;2023-01-01T02:04:01;5.80;;;4.60;;
9729;SDS011;4904;49.152;11.004;2023-01-01T02:06:29;6.07;;;4.75;;
9729;SDS011;4904;49.152;11.004;2023-01-01T02:08:58;5.22;;;4.72;;
9729;SDS011;4904;49.152;11.004;2023-01-01T02:11:28;5.22;;;4.72;;
9729;SDS011;4904;49.152;11.004;2023-01-01T02:13:56;6.03;;;4.57;;
9729;SDS011;4904;49.152;11.004;2023-01-01T02:16:27;6.63;;;5.05;;
9729;SDS011;4904;49.152;11.004;2023-01-01T02:19:02;7.18;;;5.45;;
9729;SDS011;4904;49.152;11.004;2023-01-01T02:21:38;6.80;;;5.53;;
9729;SDS011;4904;49.152;11.004;2023-01-01T02:24:20;6.05;;;5.43;;
9729;SDS011;4904;49.152;11.004;2023-01-01T02:27:00;7.82;;;5.30;;
9729;SDS011;4904;49.152;11.004;2023-01-01T02:29:34;6.55;;;5.45;;
9729;SDS011;4904;49.152;11.004;2023-01-01T02:32:06;6.40;;;5.80;;
9729;SDS011;4904;49.152;11.004;2023-01-01T02:34:37;8.05;;;6.03;;
9729;SDS011;4904;49.152;11.004;2023-01-01T02:37:07;6.85;;;5.05;;
9729;SDS011;4904;49.152;11.004;2023-01-01T02:39:41;6.68;;;5.50;;
9729;SDS011;4904;49.152;11.004;2023-01-01T02:42:11;6.35;;;5.47;;
9729;SDS011;4904;49.152;11.004;2023-01-01T02:44:40;6.00;;;5.40;;
9729;SDS011;4904;49.152;11.004;2023-01-01T02:47:10;6.88;;;5.97;;
9729;SDS011;4904;49.152;11.004;2023-01-01T02:49:41;8.63;;;5.80;;
9729;SDS011;4904;49.152;11.004;2023-01-01T02:52:18;5.97;;;5.35;;
9729;SDS011;4904;49.152;11.004;2023-01-01T02:54:58;6.13;;;5.53;;
9729;SDS011;4904;49.152;11.004;2023-01-01T02:57:34;5.78;;;5.18;;
9729;SDS011;4904;49.152;11.004;2023-01-01T03:00:05;6.43;;;4.95;;
9729;SDS011;4904;49.152;11.004;2023-01-01T03:02:46;6.03;;;5.40;;
9729;SDS011;4904;49.152;11.004;2023-01-01T03:05:21;6.63;;;5.93;;
9729;SDS011;4904;49.152;11.004;2023-01-01T03:08:01;5.90;;;5.30;;
9729;SDS011;4904;49.152;11.004;2023-01-01T03:10:35;7.35;;;5.82;;
9729;SDS011;4904;49.152;11.004;2023-01-01T03:13:10;8.38;;;5.85;;
9729;SDS011;4904;49.152;11.004;2023-01-01T03:15:46;6.15;;;5.55;;
9729;SDS011;4904;49.152;11.004;2023-01-01T03:18:24;6.07;;;5.47;;
9729;SDS011;4904;49.152;11.004;2023-01-01T03:20:56;5.85;;;5.28;;
9729;SDS011;4904;49.152;11.004;2023-01-01T03:23:30;6.10;;;5.50;;
9729;SDS011;4904;49.152;11.004;2023-01-01T03:26:04;5.95;;;5.10;;
9729;SDS011;4904;49.152;11.004;2023-01-01T03:28:34;6.80;;;6.07;;
9729;SDS011;4904;49.152;11.004;2023-01-01T03:31:06;5.43;;;4.93;;
9729;SDS011;4904;49.152;11.004;2023-01-01T03:33:35;5.93;;;5.32;;
9729;SDS011;4904;49.152;11.004;2023-01-01T03:36:06;6.57;;;5.60;;
9729;SDS011;4904;49.152;11.004;2023-01-01T03:38:38;6.40;;;5.78;;
9729;SDS011;4904;49.152;11.004;2023-01-01T03:41:09;7.53;;;5.88;;
9729;SDS011;4904;49.152;11.004;2023-01-01T03:43:41;6.28;;;5.40;;
9729;SDS011;4904;49.152;11.004;2023-01-01T03:46:14;6.63;;;5.53;;
9729;SDS011;4904;49.152;11.004;2023-01-01T03:48:45;7.05;;;5.10;;
9729;SDS011;4904;49.152;11.004;2023-01-01T03:51:22;7.68;;;5.78;;
9729;SDS011;4904;49.152;11.004;2023-01-01T03:53:53;7.00;;;5.80;;
9729;SDS011;4904;49.152;11.004;2023-01-01T03:56:23;6.22;;;5.50;;
9729;SDS011;4904;49.152;11.004;2023-01-01T03:58:57;6.07;;;5.10;;
9729;SDS011;4904;49.152;11.004;2023-01-01T04:01:32;6.35;;;5.22;;
9729;SDS011;4904;49.152;11.004;2023-01-01T04:04:02;7.88;;;5.82;;
9729;SDS011;4904;49.152;11.004;2023-01-01T04:06:31;6.88;;;5.63;;
9729;SDS011;4904;49.152;11.004;2023-01-01T04:08:58;7.25;;;5.50;;
9729;SDS011;4904;49.152;11.004;2023-01-01T04:11:27;7.43;;;5.85;;
9729;SDS011;4904;49.152;11.004;2023-01-01T04:14:24;6.47;;;5.88;;
9729;SDS011;4904;49.152;11.004;2023-01-01T04:16:53;6.68;;;5.90;;
9729;SDS011;4904;49.152;11.004;2023-01-01T04:19:20;6.90;;;6.20;;
9729;SDS011;4904;49.152;11.004;2023-01-01T04:21:47;8.65;;;6.63;;
9729;SDS011;4904;49.152;11.004;2023-01-01T04:24:14;8.65;;;6.60;;
9729;SDS011;4904;49.152;11.004;2023-01-01T04:26:41;8.45;;;6.85;;
9729;SDS011;4904;49.152;11.004;2023-01-01T04:29:08;7.68;;;5.97;;
9729;SDS011;4904;49.152;11.004;2023-01-01T04:31:35;7.85;;;6.22;;
9729;SDS011;4904;49.152;11.004;2023-01-01T04:34:03;8.05;;;6.68;;
9729;SDS011;4904;49.152;11.004;2023-01-01T04:36:30;7.60;;;6.80;;
9729;SDS011;4904;49.152;11.004;2023-01-01T04:38:57;8.48;;;6.88;;
9729;SDS011;4904;49.152;11.004;2023-01-01T04:41:24;8.48;;;7.30;;
9729;SDS011;4904;49.152;11.004;2023-01-01T04:43:50;7.20;;;6.50;;
9729;SDS011;4904;49.152;11.004;2023-01-01T04:46:18;8.07;;;6.75;;
9729;SDS011;4904;49.152;11.004;2023-01-01T04:48:46;7.90;;;7.10;;
9729;SDS011;4904;49.152;11.004;2023-01-01T04:51:14;10.30;;;6.68;;
9729;SDS011;4904;49.152;11.004;2023-01-01T04:53:42;8.60;;;7.40;;
9729;SDS011;4904;49.152;11.004;2023-01-01T04:56:10;8.55;;;7.00;;
9729;SDS011;4904;49.152;11.004;2023-01-01T04:58:39;8.15;;;7.05;;
9729;SDS011;4904;49.152;11.004;2023-01-01T05:01:07;9.98;;;7.10;;
9729;SDS011;4904;49.152;11.004;2023-01-01T05:03:39;7.97;;;6.88;;
9729;SDS011;4904;49.152;11.004;2023-01-01T05:06:06;10.52;;;7.15;;
9729;SDS011;4904;49.152;11.004;2023-01-01T05:08:36;11.13;;;6.85;;
9729;SDS011;4904;49.152;11.004;2023-01-01T05:11:04;8.07;;;7.25;;
9729;SDS011;4904;49.152;11.004;2023-01-01T05:13:33;8.07;;;7.15;;
9729;SDS011;4904;49.152;11.004;2023-01-01T05:16:00;8.20;;;7.13;;
9729;SDS011;4904;49.152;11.004;2023-01-01T05:18:28;10.55;;;8.38;;
9729;SDS011;4904;49.152;11.004;2023-01-01T05:20:57;9.57;;;8.02;;
9729;SDS011;4904;49.152;11.004;2023-01-01T05:23:25;9.27;;;8.13;;
9729;SDS011;4904;49.152;11.004;2023-01-01T05:25:54;10.55;;;8.52;;
9729;SDS011;4904;49.152;11.004;2023-01-01T05:28:21;10.38;;;8.02;;
9729;SDS011;4904;49.152;11.004;2023-01-01T05:30:49;12.40;;;8.63;;
9729;SDS011;4904;49.152;11.004;2023-01-01T05:33:15;10.82;;;9.55;;
9729;SDS011;4904;49.152;11.004;2023-01-01T05:35:43;11.95;;;9.25;;
9729;SDS011;4904;49.152;11.004;2023-01-01T05:38:09;9.85;;;8.38;;
9729;SDS011;4904;49.152;11.004;2023-01-01T05:40:37;9.88;;;8.30;;
9729;SDS011;4904;49.152;11.004;2023-01-01T05:43:05;12.15;;;8.98;;
9729;SDS011;4904;49.152;11.004;2023-01-01T05:45:32;10.68;;;8.77;;
9729;SDS011;4904;49.152;11.004;2023-01-01T05:47:59;10.35;;;8.63;;
9729;SDS011;4904;49.152;11.004;2023-01-01T05:50:26;10.90;;;8.68;;
9729;SDS011;4904;49.152;11.004;2023-01-01T05:52:53;10.82;;;9.00;;
9729;SDS011;4904;49.152;11.004;2023-01-01T05:55:20;11.27;;;9.23;;
9729;SDS011;4904;49.152;11.004;2023-01-01T05:57:47;10.10;;;9.02;;
9729;SDS011;4904;49.152;11.004;2023-01-01T06:00:15;10.30;;;9.20;;
9729;SDS011;4904;49.152;11.004;2023-01-01T06:02:43;12.75;;;9.82;;
9729;SDS011;4904;49.152;11.004;2023-01-01T06:05:10;11.00;;;9.13;;
9729;SDS011;4904;49.152;11.004;2023-01-01T06:07:37;10.85;;;8.77;;
9729;SDS011;4904;49.152;11.004;2023-01-01T06:10:04;10.77;;;8.60;;
9729;SDS011;4904;49.152;11.004;2023-01-01T06:12:31;10.40;;;8.30;;
9729;SDS011;4904;49.152;11.004;2023-01-01T06:14:58;11.48;;;8.85;;
9729;SDS011;4904;49.152;11.004;2023-01-01T06:17:26;12.85;;;9.15;;
9729;SDS011;4904;49.152;11.004;2023-01-01T06:19:53;10.52;;;9.15;;
9729;SDS011;4904;49.152;11.004;2023-01-01T06:22:20;10.27;;;8.93;;
9729;SDS011;4904;49.152;11.004;2023-01-01T06:24:46;10.27;;;8.77;;
9729;SDS011;4904;49.152;11.004;2023-01-01T06:27:13;9.57;;;8.57;;
9729;SDS011;4904;49.152;11.004;2023-01-01T06:29:40;9.85;;;8.77;;
9729;SDS011;4904;49.152;11.004;2023-01-01T06:32:07;11.98;;;8.60;;
9729;SDS011;4904;49.152;11.004;2023-01-01T06:34:35;11.57;;;9.40;;
9729;SDS011;4904;49.152;11.004;2023-01-01T06:37:02;11.45;;;9.23;;
9729;SDS011;4904;49.152;11.004;2023-01-01T06:39:29;9.75;;;8.75;;
9729;SDS011;4904;49.152;11.004;2023-01-01T06:41:55;10.57;;;8.70;;
9729;SDS011;4904;49.152;11.004;2023-01-01T06:44:22;11.73;;;9.70;;
9729;SDS011;4904;49.152;11.004;2023-01-01T06:46:49;11.00;;;9.40;;
9729;SDS011;4904;49.152;11.004;2023-01-01T06:49:16;10.32;;;9.23;;
9729;SDS011;4904;49.152;11.004;2023-01-01T06:51:44;10.23;;;8.60;;
9729;SDS011;4904;49.152;11.004;2023-01-01T06:54:11;10.13;;;8.65;;
9729;SDS011;4904;49.152;11.004;2023-01-01T06:56:38;10.10;;;9.02;;
9729;SDS011;4904;49.152;11.004;2023-01-01T06:59:05;10.85;;;8.98;;
9729;SDS011;4904;49.152;11.004;2023-01-01T07:01:33;11.25;;;9.15;;
9729;SDS011;4904;49.152;11.004;2023-01-01T07:04:04;12.30;;;9.30;;
9729;SDS011;4904;49.152;11.004;2023-01-01T07:06:33;11.70;;;9.25;;
9729;SDS011;4904;49.152;11.004;2023-01-01T07:09:03;10.18;;;8.77;;
9729;SDS011;4904;49.152;11.004;2023-01-01T07:11:30;11.55;;;9.43;;
9729;SDS011;4904;49.152;11.004;2023-01-01T07:13:57;11.65;;;8.80;;
9729;SDS011;4904;49.152;11.004;2023-01-01T07:16:24;11.02;;;9.00;;
9729;SDS011;4904;49.152;11.004;2023-01-01T07:18:51;11.55;;;8.85;;
9729;SDS011;4904;49.152;11.004;2023-01-01T07:21:24;10.32;;;9.23;;
9729;SDS011;4904;49.152;11.004;2023-01-01T07:23:53;11.23;;;9.10;;
9729;SDS011;4904;49.152;11.004;2023-01-01T07:26:23;10.43;;;8.93;;
9729;SDS011;4904;49.152;11.004;2023-01-01T07:28:50;9.50;;;8.50;;
9729;SDS011;4904;49.152;11.004;2023-01-01T07:31:17;10.57;;;8.60;;
9729;SDS011;4904;49.152;11.004;2023-01-01T07:33:44;9.68;;;8.57;;
9729;SDS011;4904;49.152;11.004;2023-01-01T07:36:11;10.95;;;8.60;;
9729;SDS011;4904;49.152;11.004;2023-01-01T07:38:38;11.00;;;8.43;;
9729;SDS011;4904;49.152;11.004;2023-01-01T07:41:05;9.55;;;7.70;;
9729;SDS011;4904;49.152;11.004;2023-01-01T07:43:33;8.98;;;7.88;;
9729;SDS011;4904;49.152;11.004;2023-01-01T07:46:00;9.27;;;7.43;;
9729;SDS011;4904;49.152;11.004;2023-01-01T07:48:28;9.02;;;7.43;;
9729;SDS011;4904;49.152;11.004;2023-01-01T07:50:55;8.95;;;6.57;;
9729;SDS011;4904;49.152;11.004;2023-01-01T07:53:22;8.18;;;6.13;;
9729;SDS011;4904;49.152;11.004;2023-01-01T07:55:49;7.70;;;6.00;;
9729;SDS011;4904;49.152;11.004;2023-01-01T07:58:15;6.93;;;5.88;;
9729;SDS011;4904;49.152;11.004;2023-01-01T08:00:45;9.30;;;7.45;;
9729;SDS011;4904;49.152;11.004;2023-01-01T08:03:12;6.75;;;5.90;;
9729;SDS011;4904;49.152;11.004;2023-01-01T08:05:40;7.63;;;6.10;;
9729;SDS011;4904;49.152;11.004;2023-01-01T08:08:07;7.90;;;6.45;;
9729;SDS011;4904;49.152;11.004;2023-01-01T08:10:35;9.18;;;6.88;;
9729;SDS011;4904;49.152;11.004;2023-01-01T08:13:02;6.47;;;5.70;;
9729;SDS011;4904;49.152;11.004;2023-01-01T08:15:30;6.95;;;6.25;;
9729;SDS011;4904;49.152;11.004;2023-01-01T08:17:59;7.72;;;6.75;;
9729;SDS011;4904;49.152;11.004;2023-01-01T08:20:28;8.63;;;6.10;;
9729;SDS011;4904;49.152;11.004;2023-01-01T08:22:56;7.50;;;6.25;;
9729;SDS011;4904;49.152;11.004;2023-01-01T08:25:23;9.38;;;6.13;;
9729;SDS011;4904;49.152;11.004;2023-01-01T08:27:50;7.45;;;5.38;;
9729;SDS011;4904;49.152;11.004;2023-01-01T08:30:17;6.53;;;5.93;;
9729;SDS011;4904;49.152;11.004;2023-01-01T08:32:44;6.93;;;5.70;;
9729;SDS011;4904;49.152;11.004;2023-01-01T08:35:12;7.35;;;5.97;;
9729;SDS011;4904;49.152;11.004;2023-01-01T08:37:39;7.47;;;5.63;;
9729;SDS011;4904;49.152;11.004;2023-01-01T08:40:06;7.10;;;5.35;;
9729;SDS011;4904;49.152;11.004;2023-01-01T08:42:35;6.47;;;5.85;;
9729;SDS011;4904;49.152;11.004;2023-01-01T08:45:03;9.55;;;5.82;;
9729;SDS011;4904;49.152;11.004;2023-01-01T08:47:30;8.32;;;6.25;;
9729;SDS011;4904;49.152;11.004;2023-01-01T08:49:57;6.75;;;5.97;;
9729;SDS011;4904;49.152;11.004;2023-01-01T08:52:25;7.75;;;5.63;;
9729;SDS011;4904;49.152;11.004;2023-01-01T08:54:52;6.03;;;5.38;;
9729;SDS011;4904;49.152;11.004;2023-01-01T08:57:19;8.75;;;5.65;;
9729;SDS011;4904;49.152;11.004;2023-01-01T08:59:46;6.38;;;5.63;;
9729;SDS011;4904;49.152;11.004;2023-01-01T09:02:13;5.25;;;4.75;;
9729;SDS011;4904;49.152;11.004;2023-01-01T09:04:39;6.13;;;5.30;;
9729;SDS011;4904;49.152;11.004;2023-01-01T09:07:06;6.55;;;5.95;;
9729;SDS011;4904;49.152;11.004;2023-01-01T09:09:34;6.22;;;5.10;;
9729;SDS011;4904;49.152;11.004;2023-01-01T09:12:01;7.53;;;5.47;;
9729;SDS011;4904;49.152;11.004;2023-01-01T09:14:30;6.95;;;5.97;;
9729;SDS011;4904;49.152;11.004;2023-01-01T09:16:57;5.90;;;5.30;;
9729;SDS011;4904;49.152;11.004;2023-01-01T09:19:25;5.55;;;4.85;;
9729;SDS011;4904;49.152;11.004;2023-01-01T09:21:52;7.18;;;5.60;;
9729;SDS011;4904;49.152;11.004;2023-01-01T09:24:19;7.38;;;5.18;;
9729;SDS011;4904;49.152;11.004;2023-01-01T09:26:48;6.22;;;5.60;;
9729;SDS011;4904;49.152;11.004;2023-01-01T09:29:15;6.18;;;5.10;;
9729;SDS011;4904;49.152;11.004;2023-01-01T09:31:44;5.50;;;4.80;;
9729;SDS011;4904;49.152;11.004;2023-01-01T09:34:12;5.20;;;4.65;;
9729;SDS011;4904;49.152;11.004;2023-01-01T09:36:39;5.68;;;5.18;;
9729;SDS011;4904;49.152;11.004;2023-01-01T09:39:06;8.48;;;5.68;;
9729;SDS011;4904;49.152;11.004;2023-01-01T09:41:42;6.32;;;5.57;;
9729;SDS011;4904;49.152;11.004;2023-01-01T09:44:19;6.20;;;5.57;;
9729;SDS011;4904;49.152;11.004;2023-01-01T09:46:57;7.93;;;6.18;;
9729;SDS011;4904;49.152;11.004;2023-01-01T09:49:28;8.25;;;6.00;;
9729;SDS011;4904;49.152;11.004;2023-01-01T09:51:59;6.63;;;5.85;;
9729;SDS011;4904;49.152;11.004;2023-01-01T09:54:30;8.68;;;6.28;;
9729;SDS011;4904;49.152;11.004;2023-01-01T09:56:59;5.75;;;5.15;;
9729;SDS011;4904;49.152;11.004;2023-01-01T09:59:30;8.30;;;5.53;;
9729;SDS011;4904;49.152;11.004;2023-01-01T10:01:59;7.13;;;5.45;;
9729;SDS011;4904;49.152;11.004;2023-01-01T10:04:39;7.72;;;5.53;;
9729;SDS011;4904;49.152;11.004;2023-01-01T10:07:14;8.60;;;5.60;;
9729;SDS011;4904;49.152;11.004;2023-01-01T10:09:47;5.78;;;5.13;;
9729;SDS011;4904;49.152;11.004;2023-01-01T10:12:22;8.93;;;6.53;;
9729;SDS011;4904;49.152;11.004;2023-01-01T10:15:02;7.95;;;5.80;;
9729;SDS011;4904;49.152;11.004;2023-01-01T10:17:37;7.03;;;5.55;;
9729;SDS011;4904;49.152;11.004;2023-01-01T10:20:10;6.50;;;5.88;;
9729;SDS011;4904;49.152;11.004;2023-01-01T10:22:43;7.05;;;5.68;;
9729;SDS011;4904;49.152;11.004;2023-01-01T10:25:15;6.85;;;5.53;;
9729;SDS011;4904;49.152;11.004;2023-01-01T10:27:44;7.75;;;6.90;;
9729;SDS011;4904;49.152;11.004;2023-01-01T10:30:18;6.65;;;6.03;;
9729;SDS011;4904;49.152;11.004;2023-01-01T10:32:46;7.57;;;6.38;;
9729;SDS011;4904;49.152;11.004;2023-01-01T10:35:15;7.10;;;6.40;;
9729;SDS011;4904;49.152;11.004;2023-01-01T10:37:43;8.57;;;7.18;;
9729;SDS011;4904;49.152;11.004;2023-01-01T10:40:14;13.35;;;10.23;;
9729;SDS011;4904;49.152;11.004;2023-01-01T10:42:44;8.63;;;5.43;;
9729;SDS011;4904;49.152;11.004;2023-01-01T10:45:14;6.68;;;5.40;;
9729;SDS011;4904;49.152;11.004;2023-01-01T10:50:42;8.63;;;5.63;;
9729;SDS011;4904;49.152;11.004;2023-01-01T10:53:21;7.22;;;5.75;;
9729;SDS011;4904;49.152;11.004;2023-01-01T10:55:56;8.77;;;5.82;;
9729;SDS011;4904;49.152;11.004;2023-01-01T10:58:28;5.93;;;5.32;;
9729;SDS011;4904;49.152;11.004;2023-01-01T11:01:02;8.93;;;5.97;;
9729;SDS011;4904;49.152;11.004;2023-01-01T11:03:32;7.15;;;5.63;;
9729;SDS011;4904;49.152;11.004;2023-01-01T11:06:00;7.18;;;5.60;;
9729;SDS011;4904;49.152;11.004;2023-01-01T11:08:29;5.18;;;4.68;;
9729;SDS011;4904;49.152;11.004;2023-01-01T11:10:59;5.55;;;4.88;;
9729;SDS011;4904;49.152;11.004;2023-01-01T11:13:27;7.15;;;5.10;;
9729;SDS011;4904;49.152;11.004;2023-01-01T11:15:56;6.60;;;4.97;;
9729;SDS011;4904;49.152;11.004;2023-01-01T11:18:24;5.40;;;4.60;;
9729;SDS011;4904;49.152;11.004;2023-01-01T11:21:01;7.15;;;4.53;;
9729;SDS011;4904;49.152;11.004;2023-01-01T11:23:30;5.32;;;4.43;;
9729;SDS011;4904;49.152;11.004;2023-01-01T11:26:01;5.90;;;4.47;;
9729;SDS011;4904;49.152;11.004;2023-01-01T11:28:32;5.25;;;4.45;;
9729;SDS011;4904;49.152;11.004;2023-01-01T11:31:02;6.38;;;4.55;;
9729;SDS011;4904;49.152;11.004;2023-01-01T11:33:33;5.18;;;4.00;;
9729;SDS011;4904;49.152;11.004;2023-01-01T11:36:06;7.30;;;4.68;;
9729;SDS011;4904;49.152;11.004;2023-01-01T11:38:33;6.53;;;4.30;;
9729;SDS011;4904;49.152;11.004;2023-01-01T11:41:01;4.65;;;4.25;;
9729;SDS011;4904;49.152;11.004;2023-01-01T11:43:32;8.38;;;4.30;;
9729;SDS011;4904;49.152;11.004;2023-01-01T11:46:05;6.05;;;4.65;;
9729;SDS011;4904;49.152;11.004;2023-01-01T11:48:34;6.10;;;3.97;;
9729;SDS011;4904;49.152;11.004;2023-01-01T11:51:07;10.50;;;4.57;;
9729;SDS011;4904;49.152;11.004;2023-01-01T11:53:37;6.25;;;4.47;;
9729;SDS011;4904;49.152;11.004;2023-01-01T11:56:07;6.90;;;4.32;;
9729;SDS011;4904;49.152;11.004;2023-01-01T11:58:39;5.10;;;4.60;;
9729;SDS011;4904;49.152;11.004;2023-01-01T12:01:16;4.50;;;4.03;;
9729;SDS011;4904;49.152;11.004;2023-01-01T12:03:47;6.70;;;4.70;;
9729;SDS011;4904;49.152;11.004;2023-01-01T12:06:21;5.28;;;4.65;;
9729;SDS011;4904;49.152;11.004;2023-01-01T12:08:53;5.00;;;4.55;;
9729;SDS011;4904;49.152;11.004;2023-01-01T12:11:26;5.57;;;4.65;;
9729;SDS011;4904;49.152;11.004;2023-01-01T12:13:58;4.85;;;4.20;;
9729;SDS011;4904;49.152;11.004;2023-01-01T12:16:36;4.93;;;4.45;;
9729;SDS011;4904;49.152;11.004;2023-01-01T12:19:12;6.32;;;5.00;;
9729;SDS011;4904;49.152;11.004;2023-01-01T12:21:46;6.28;;;4.93;;
9729;SDS011;4904;49.152;11.004;2023-01-01T12:24:14;6.07;;;4.75;;
9729;SDS011;4904;49.152;11.004;2023-01-01T12:26:48;6.20;;;5.32;;
9729;SDS011;4904;49.152;11.004;2023-01-01T12:29:30;6.20;;;4.90;;
9729;SDS011;4904;49.152;11.004;2023-01-01T12:32:19;6.88;;;4.85;;
9729;SDS011;4904;49.152;11.004;2023-01-01T12:34:53;5.82;;;4.80;;
9729;SDS011;4904;49.152;11.004;2023-01-01T12:37:34;6.97;;;4.80;;
9729;SDS011;4904;49.152;11.004;2023-01-01T12:43:03;6.18;;;4.25;;
9729;SDS011;4904;49.152;11.004;2023-01-01T12:45:45;6.38;;;4.40;;
9729;SDS011;4904;49.152;11.004;2023-01-01T12:48:34;8.20;;;4.75;;
9729;SDS011;4904;49.152;11.004;2023-01-01T12:51:23;5.55;;;4.43;;
9729;SDS011;4904;49.152;11.004;2023-01-01T12:54:00;4.70;;;3.72;;
9729;SDS011;4904;49.152;11.004;2023-01-01T12:56:43;4.97;;;4.30;;
9729;SDS011;4904;49.152;11.004;2023-01-01T12:59:15;5.82;;;4.10;;
9729;SDS011;4904;49.152;11.004;2023-01-01T13:01:46;5.25;;;4.25;;
9729;SDS011;4904;49.152;11.004;2023-01-01T13:04:17;6.82;;;4.07;;
9729;SDS011;4904;49.152;11.004;2023-01-01T13:06:47;4.82;;;4.10;;
9729;SDS011;4904;49.152;11.004;2023-01-01T13:09:18;5.57;;;4.00;;
9729;SDS011;4904;49.152;11.004;2023-01-01T13:11:48;5.07;;;3.65;;
9729;SDS011;4904;49.152;11.004;2023-01-01T13:14:19;4.25;;;3.67;;
9729;SDS011;4904;49.152;11.004;2023-01-01T13:16:47;7.28;;;4.35;;
9729;SDS011;4904;49.152;11.004;2023-01-01T13:19:22;6.50;;;3.60;;
9729;SDS011;4904;49.152;11.004;2023-01-01T13:21:51;4.82;;;3.58;;
9729;SDS011;4904;49.152;11.004;2023-01-01T13:24:20;3.97;;;3.20;;
9729;SDS011;4904;49.152;11.004;2023-01-01T13:26:49;5.22;;;3.63;;
9729;SDS011;4904;49.152;11.004;2023-01-01T13:29:29;4.47;;;3.22;;
9729;SDS011;4904;49.152;11.004;2023-01-01T13:32:04;5.55;;;3.20;;
9729;SDS011;4904;49.152;11.004;2023-01-01T13:37:27;5.53;;;3.50;;
9729;SDS011;4904;49.152;11.004;2023-01-01T13:43:28;6.38;;;3.33;;
9729;SDS011;4904;49.152;11.004;2023-01-01T13:45:56;5.43;;;3.55;;
9729;SDS011;4904;49.152;11.004;2023-01-01T13:51:34;4.45;;;3.10;;
9729;SDS011;4904;49.152;11.004;2023-01-01T13:57:26;3.63;;;2.92;;
9729;SDS011;4904;49.152;11.004;2023-01-01T14:00:15;4.20;;;3.65;;
9729;SDS011;4904;49.152;11.004;2023-01-01T14:02:45;3.97;;;3.10;;
9729;SDS011;4904;49.152;11.004;2023-01-01T14:05:17;4.22;;;3.28;;
9729;SDS011;4904;49.152;11.004;2023-01-01T14:07:50;6.20;;;3.33;;
9729;SDS011;4904;49.152;11.004;2023-01-01T14:10:19;5.63;;;3.40;;
9729;SDS011;4904;49.152;11.004;2023-01-01T14:12:49;5.18;;;3.05;;
9729;SDS011;4904;49.152;11.004;2023-01-01T14:15:23;5.15;;;3.15;;
9729;SDS011;4904;49.152;11.004;2023-01-01T14:17:52;7.13;;;3.47;;
9729;SDS011;4904;49.152;11.004;2023-01-01T14:20:25;4.97;;;3.00;;
9729;SDS011;4904;49.152;11.004;2023-01-01T14:22:57;4.82;;;3.25;;
9729;SDS011;4904;49.152;11.004;2023-01-01T14:25:29;8.13;;;3.20;;
9729;SDS011;4904;49.152;11.004;2023-01-01T14:27:56;3.95;;;3.15;;
9729;SDS011;4904;49.152;11.004;2023-01-01T14:30:25;4.80;;;3.20;;
9729;SDS011;4904;49.152;11.004;2023-01-01T14:32:56;5.53;;;3.25;;
9729;SDS011;4904;49.152;11.004;2023-01-01T14:35:24;6.70;;;2.70;;
9729;SDS011;4904;49.152;11.004;2023-01-01T14:37:52;4.47;;;3.15;;
9729;SDS011;4904;49.152;11.004;2023-01-01T14:40:19;3.95;;;3.10;;
9729;SDS011;4904;49.152;11.004;2023-01-01T14:42:59;5.88;;;3.00;;
9729;SDS011;4904;49.152;11.004;2023-01-01T14:45:31;3.95;;;2.83;;
9729;SDS011;4904;49.152;11.004;2023-01-01T14:48:00;7.22;;;3.30;;
9729;SDS011;4904;49.152;11.004;2023-01-01T14:50:29;3.97;;;2.78;;
9729;SDS011;4904;49.152;11.004;2023-01-01T14:53:00;5.07;;;3.08;;
9729;SDS011;4904;49.152;11.004;2023-01-01T14:55:31;4.57;;;2.90;;
9729;SDS011;4904;49.152;11.004;2023-01-01T14:58:00;8.35;;;3.42;;
9729;SDS011;4904;49.152;11.004;2023-01-01T15:00:28;4.90;;;3.05;;
9729;SDS011;4904;49.152;11.004;2023-01-01T15:03:05;4.93;;;3.42;;
9729;SDS011;4904;49.152;11.004;2023-01-01T15:05:36;6.68;;;3.40;;
9729;SDS011;4904;49.152;11.004;2023-01-01T15:08:05;4.95;;;3.40;;
9729;SDS011;4904;49.152;11.004;2023-01-01T15:10:42;5.07;;;3.15;;
9729;SDS011;4904;49.152;11.004;2023-01-01T15:13:12;5.82;;;3.40;;
9729;SDS011;4904;49.152;11.004;2023-01-01T15:15:44;6.82;;;2.97;;
9729;SDS011;4904;49.152;11.004;2023-01-01T15:21:03;5.78;;;3.05;;
9729;SDS011;4904;49.152;11.004;2023-01-01T15:23:32;5.03;;;3.17;;
9729;SDS011;4904;49.152;11.004;2023-01-01T15:26:01;5.68;;;3.42;;
9729;SDS011;4904;49.152;11.004;2023-01-01T15:28:31;4.72;;;2.90;;
9729;SDS011;4904;49.152;11.004;2023-01-01T15:30:59;4.97;;;3.42;;
9729;SDS011;4904;49.152;11.004;2023-01-01T15:33:26;3.65;;;3.00;;
9729;SDS011;4904;49.152;11.004;2023-01-01T15:35:54;5.65;;;3.10;;
9729;SDS011;4904;49.152;11.004;2023-01-01T15:38:25;4.40;;;3.10;;